Terminal Aerodrome Forecast
Issued by NWS Corpus Christi, TX

Home | Current Version | Previous Version | Text Only | Print | Product List | Glossary On
Versions: 1 2 3 4 5 6 7 8 9 10 11 12
000
FTUS44 KCRP 281128
TAFCRP
TAF
KCRP 281128Z 2812/2912 17006KT P6SM FEW018
     FM281500 17012G18KT P6SM SCT030
     FM281800 14016G21KT P6SM FEW045
     FM290200 15010KT P6SM FEW020=

USA.gov is the U.S. government's official web portal to all federal, state and local government web resources and services.